createdAt,value
2019-01-28T00:00:20.279Z,0
2019-01-28T00:01:29.993Z,0
2019-01-28T00:02:39.968Z,0
2019-01-28T00:03:49.904Z,0
2019-01-28T00:04:59.853Z,0
2019-01-28T00:06:09.813Z,0
2019-01-28T00:07:19.762Z,0
2019-01-28T00:08:29.466Z,0
2019-01-28T00:09:39.148Z,0
2019-01-28T00:10:48.583Z,0
2019-01-28T00:11:58.036Z,0
2019-01-28T00:13:07.725Z,0
2019-01-28T00:14:17.413Z,0
2019-01-28T00:15:27.371Z,0
2019-01-28T00:16:37.326Z,0
2019-01-28T00:17:47.254Z,0
2019-01-28T00:18:56.950Z,0
2019-01-28T00:20:06.880Z,0
2019-01-28T00:21:16.324Z,0
2019-01-28T00:22:26.006Z,0
2019-01-28T00:23:35.454Z,0
2019-01-28T00:24:44.897Z,0
2019-01-28T00:25:54.571Z,0
2019-01-28T00:27:04.278Z,0
2019-01-28T00:28:13.977Z,0
2019-01-28T00:29:23.906Z,0
2019-01-28T00:30:33.341Z,0
2019-01-28T00:31:43.034Z,0
2019-01-28T00:32:52.967Z,0
2019-01-28T00:34:02.907Z,0
2019-01-28T00:35:12.853Z,0
2019-01-28T00:36:22.785Z,0
2019-01-28T00:37:32.470Z,0
2019-01-28T00:38:42.421Z,0
2019-01-28T00:39:51.852Z,0
2019-01-28T00:41:01.530Z,0
2019-01-28T00:42:11.215Z,0
2019-01-28T00:43:21.156Z,0
2019-01-28T00:44:31.092Z,0
2019-01-28T00:45:40.529Z,0
2019-01-28T00:46:50.218Z,0
2019-01-28T00:47:59.900Z,0
2019-01-28T00:49:09.832Z,0
2019-01-28T00:50:19.268Z,0
2019-01-28T00:51:28.941Z,0
2019-01-28T00:52:38.884Z,0
2019-01-28T00:53:48.317Z,0
2019-01-28T00:54:58.003Z,0
2019-01-28T00:56:07.685Z,0
2019-01-28T00:57:17.638Z,0
2019-01-28T00:58:27.318Z,0
2019-01-28T00:59:37.117Z,0
2019-01-28T01:00:46.778Z,0
2019-01-28T01:01:56.712Z,0
2019-01-28T01:03:06.417Z,0
2019-01-28T01:04:16.136Z,0
2019-01-28T01:05:26.136Z,0
2019-01-28T01:06:35.839Z,0
2019-01-28T01:07:45.801Z,0
2019-01-28T01:08:55.733Z,0
2019-01-28T01:10:05.426Z,0
2019-01-28T01:11:15.123Z,0
2019-01-28T01:12:24.835Z,0
2019-01-28T01:13:34.519Z,0
2019-01-28T01:14:44.215Z,0
2019-01-28T01:15:54.209Z,0
2019-01-28T01:17:04.162Z,0
2019-01-28T01:18:13.848Z,0
2019-01-28T01:19:23.537Z,0
2019-01-28T01:20:33.465Z,0
2019-01-28T01:21:43.417Z,0
2019-01-28T01:22:53.354Z,0
2019-01-28T01:24:03.314Z,0
2019-01-28T01:25:13.241Z,0
2019-01-28T01:26:23.178Z,0
2019-01-28T01:27:32.874Z,0
2019-01-28T01:28:42.817Z,0
2019-01-28T01:29:52.753Z,0
2019-01-28T01:31:02.185Z,0
2019-01-28T01:32:11.639Z,0
2019-01-28T01:33:21.596Z,0
2019-01-28T01:34:31.281Z,0
2019-01-28T01:35:41.213Z,0
2019-01-28T01:36:51.136Z,0
2019-01-28T01:38:00.579Z,0
2019-01-28T01:39:10.534Z,0
2019-01-28T01:40:20.225Z,0
2019-01-28T01:41:30.172Z,0
2019-01-28T01:42:39.607Z,0
2019-01-28T01:43:49.295Z,0
2019-01-28T01:44:58.973Z,0
2019-01-28T01:46:08.919Z,0
2019-01-28T01:47:18.837Z,0
2019-01-28T01:48:28.783Z,0
2019-01-28T01:49:37.978Z,0
2019-01-28T01:50:47.651Z,0
2019-01-28T01:51:57.341Z,0
2019-01-28T01:53:07.021Z,0
2019-01-28T01:54:16.960Z,0
2019-01-28T01:55:26.646Z,0
2019-01-28T01:56:36.331Z,0
2019-01-28T01:57:46.016Z,0
2019-01-28T01:58:55.697Z,0
2019-01-28T02:00:05.641Z,0
2019-01-28T02:01:15.587Z,0
2019-01-28T02:02:33.149Z,0
2019-01-28T02:03:43.106Z,0
2019-01-28T02:04:52.293Z,0
2019-01-28T02:06:02.231Z,0
2019-01-28T02:07:12.183Z,0
2019-01-28T02:08:22.125Z,0
2019-01-28T02:09:31.314Z,0
2019-01-28T02:10:41.006Z,0
2019-01-28T02:11:50.945Z,0
2019-01-28T02:13:00.647Z,0
2019-01-28T02:14:10.584Z,0
2019-01-28T02:15:20.274Z,0
2019-01-28T02:16:30.209Z,0
2019-01-28T02:17:40.159Z,0
2019-01-28T02:18:50.099Z,0
2019-01-28T02:19:59.525Z,0
2019-01-28T02:21:09.471Z,0
2019-01-28T02:22:19.413Z,0
2019-01-28T02:23:29.376Z,0
2019-01-28T02:24:39.074Z,0
2019-01-28T02:25:49.067Z,0
2019-01-28T02:26:59.008Z,0
2019-01-28T02:28:08.935Z,0
2019-01-28T02:29:18.885Z,0
2019-01-28T02:30:28.820Z,0
2019-01-28T02:31:38.529Z,0
2019-01-28T02:32:48.492Z,0
2019-01-28T02:33:58.214Z,0
2019-01-28T02:35:08.172Z,0
2019-01-28T02:36:17.859Z,0
2019-01-28T02:37:27.821Z,0
2019-01-28T02:38:37.751Z,0
2019-01-28T02:39:47.694Z,0
2019-01-28T02:40:57.663Z,0
2019-01-28T02:42:07.596Z,0
2019-01-28T02:43:17.291Z,0
2019-01-28T02:44:26.979Z,0
2019-01-28T02:45:36.912Z,0
2019-01-28T02:46:46.849Z,0
2019-01-28T02:47:56.793Z,0
2019-01-28T02:49:06.678Z,0
2019-01-28T02:50:16.625Z,0
2019-01-28T02:51:26.567Z,0
2019-01-28T02:52:36.512Z,0
2019-01-28T02:53:46.456Z,0
2019-01-28T02:54:56.404Z,0
2019-01-28T02:56:06.354Z,0
2019-01-28T02:57:16.286Z,0
2019-01-28T02:58:25.741Z,0
2019-01-28T02:59:35.682Z,0
2019-01-28T03:00:45.115Z,0
2019-01-28T03:01:55.064Z,0
2019-01-28T03:03:06.806Z,0
2019-01-28T03:04:16.256Z,0
2019-01-28T03:05:26.214Z,0
2019-01-28T03:06:35.900Z,0
2019-01-28T03:07:45.586Z,0
2019-01-28T03:08:55.537Z,0
2019-01-28T03:10:05.216Z,0
2019-01-28T03:11:15.340Z,0
2019-01-28T03:12:25.285Z,0
2019-01-28T03:13:34.976Z,0
2019-01-28T03:14:44.931Z,0
2019-01-28T03:15:54.619Z,0
2019-01-28T03:17:04.317Z,0
2019-01-28T03:18:14.029Z,0
2019-01-28T03:19:23.732Z,0
2019-01-28T03:20:33.675Z,0
2019-01-28T03:21:43.621Z,0
2019-01-28T03:22:53.318Z,0
2019-01-28T03:24:03.016Z,0
2019-01-28T03:25:12.963Z,0
2019-01-28T03:26:22.648Z,0
2019-01-28T03:27:32.336Z,0
2019-01-28T03:28:42.273Z,0
2019-01-28T03:29:52.220Z,0
2019-01-28T03:31:01.934Z,0
2019-01-28T03:32:12.040Z,0
2019-01-28T03:33:21.757Z,0
2019-01-28T03:34:31.205Z,0
2019-01-28T03:35:41.154Z,0
2019-01-28T03:36:51.081Z,0
2019-01-28T03:38:00.518Z,0
2019-01-28T03:39:10.468Z,0
2019-01-28T03:40:20.247Z,0
2019-01-28T03:41:30.204Z,0
2019-01-28T03:42:39.900Z,0
2019-01-28T03:43:49.593Z,0
2019-01-28T03:44:59.061Z,0
2019-01-28T03:46:09.806Z,0
2019-01-28T03:47:19.645Z,0
2019-01-28T03:48:29.589Z,0
2019-01-28T03:49:39.539Z,0
2019-01-28T03:50:49.254Z,0
2019-01-28T03:51:58.960Z,0
2019-01-28T03:53:07.912Z,0
2019-01-28T03:54:17.604Z,0
2019-01-28T03:55:27.318Z,0
2019-01-28T03:56:37.271Z,0
2019-01-28T03:57:46.972Z,0
2019-01-28T03:58:56.663Z,0
2019-01-28T04:00:06.591Z,0
2019-01-28T04:01:16.538Z,0
2019-01-28T04:02:26.232Z,0
2019-01-28T04:03:35.948Z,0
2019-01-28T04:04:45.903Z,0
2019-01-28T04:05:55.589Z,0
2019-01-28T04:07:05.075Z,0
2019-01-28T04:08:15.012Z,0
2019-01-28T04:09:24.956Z,0
2019-01-28T04:10:34.888Z,0
2019-01-28T04:11:44.616Z,0
2019-01-28T04:12:54.564Z,0
2019-01-28T04:14:04.264Z,0
2019-01-28T04:15:14.217Z,0
2019-01-28T04:16:23.908Z,0
2019-01-28T04:17:33.854Z,0
2019-01-28T04:18:43.562Z,0
2019-01-28T04:19:53.494Z,0
2019-01-28T04:21:03.500Z,0
2019-01-28T04:22:13.194Z,0
2019-01-28T04:23:22.378Z,0
2019-01-28T04:24:31.901Z,0
2019-01-28T04:25:41.856Z,0
2019-01-28T04:26:51.540Z,0
2019-01-28T04:28:01.235Z,0
2019-01-28T04:29:11.192Z,0
2019-01-28T04:30:20.886Z,0
2019-01-28T04:31:30.828Z,0
2019-01-28T04:32:40.265Z,0
2019-01-28T04:33:49.940Z,0
2019-01-28T04:34:59.641Z,0
2019-01-28T04:36:09.602Z,0
2019-01-28T04:37:19.578Z,0
2019-01-28T04:38:29.511Z,0
2019-01-28T04:39:38.948Z,0
2019-01-28T04:40:48.891Z,0
2019-01-28T04:41:58.825Z,0
2019-01-28T04:43:08.768Z,0
2019-01-28T04:44:20.452Z,0
2019-01-28T04:45:30.413Z,0
2019-01-28T04:46:40.114Z,0
2019-01-28T04:47:50.063Z,0
2019-01-28T04:49:00.002Z,0
2019-01-28T04:50:09.938Z,0
2019-01-28T04:51:19.654Z,0
2019-01-28T04:52:29.380Z,0
2019-01-28T04:53:39.526Z,0
2019-01-28T04:54:49.466Z,0
2019-01-28T04:55:59.410Z,0
2019-01-28T04:57:08.845Z,0
2019-01-28T04:58:18.530Z,0
2019-01-28T04:59:28.467Z,0
2019-01-28T05:00:38.426Z,0
2019-01-28T05:01:48.128Z,0
2019-01-28T05:02:57.560Z,0
2019-01-28T05:04:07.271Z,0
2019-01-28T05:05:17.216Z,0
2019-01-28T05:06:26.913Z,0
2019-01-28T05:07:36.856Z,0
2019-01-28T05:08:46.286Z,0
2019-01-28T05:09:56.277Z,0
2019-01-28T05:11:06.236Z,0
2019-01-28T05:12:16.176Z,0
2019-01-28T05:13:25.608Z,0
2019-01-28T05:14:35.296Z,0
2019-01-28T05:15:45.007Z,0
2019-01-28T05:16:54.459Z,0
2019-01-28T05:18:04.390Z,0
2019-01-28T05:19:14.330Z,0
2019-01-28T05:20:24.288Z,0
2019-01-28T05:21:34.263Z,0
2019-01-28T05:22:44.208Z,0
2019-01-28T05:23:54.153Z,0
2019-01-28T05:25:04.126Z,0
2019-01-28T05:26:13.686Z,0
2019-01-28T05:27:23.651Z,0
2019-01-28T05:28:33.338Z,0
2019-01-28T05:29:43.029Z,0
2019-01-28T05:30:52.953Z,0
2019-01-28T05:32:02.899Z,0
2019-01-28T05:33:13.563Z,0
2019-01-28T05:34:23.258Z,0
2019-01-28T05:35:32.957Z,0
2019-01-28T05:36:42.648Z,0
2019-01-28T05:37:52.739Z,0
2019-01-28T05:39:02.674Z,0
2019-01-28T05:40:12.613Z,0
2019-01-28T05:41:22.529Z,0
2019-01-28T05:42:32.486Z,0
2019-01-28T05:43:42.184Z,0
2019-01-28T05:44:52.593Z,0
2019-01-28T05:46:02.561Z,0
2019-01-28T05:47:12.268Z,0
2019-01-28T05:48:22.196Z,0
2019-01-28T05:49:31.875Z,0
2019-01-28T05:50:41.820Z,0
2019-01-28T05:51:51.774Z,0
2019-01-28T05:53:01.505Z,0
2019-01-28T05:54:11.431Z,0
2019-01-28T05:55:21.142Z,0
2019-01-28T05:56:31.084Z,0
2019-01-28T05:57:40.536Z,0
2019-01-28T05:58:50.499Z,0
2019-01-28T06:00:00.215Z,0
2019-01-28T06:01:10.172Z,0
2019-01-28T06:02:19.846Z,0
2019-01-28T06:03:29.547Z,0
2019-01-28T06:04:39.268Z,0
2019-01-28T06:05:49.229Z,0
2019-01-28T06:06:58.939Z,0
2019-01-28T06:08:10.287Z,0
2019-01-28T06:09:20.234Z,0
2019-01-28T06:10:29.923Z,0
2019-01-28T06:11:39.609Z,0
2019-01-28T06:12:49.567Z,0
2019-01-28T06:13:58.765Z,0
2019-01-28T06:15:08.450Z,0
2019-01-28T06:16:18.148Z,0
2019-01-28T06:17:27.581Z,4
2019-01-28T06:18:37.543Z,4
2019-01-28T06:19:46.981Z,0
2019-01-28T06:20:56.925Z,4
2019-01-28T06:22:06.619Z,4
2019-01-28T06:23:16.562Z,4
2019-01-28T06:24:26.508Z,8
2019-01-28T06:25:36.208Z,8
2019-01-28T06:26:45.626Z,12
2019-01-28T06:27:55.582Z,12
2019-01-28T06:29:05.535Z,12
2019-01-28T06:30:15.478Z,20
2019-01-28T06:31:25.152Z,24
2019-01-28T06:32:35.091Z,28
2019-01-28T06:33:45.050Z,32
2019-01-28T06:34:55.019Z,40
2019-01-28T06:36:04.950Z,48
2019-01-28T06:37:14.943Z,56
2019-01-28T06:38:24.892Z,68
2019-01-28T06:39:34.571Z,80
2019-01-28T06:40:44.555Z,96
2019-01-28T06:41:54.516Z,112
2019-01-28T06:43:04.440Z,128
2019-01-28T06:44:14.126Z,148
2019-01-28T06:45:24.062Z,168
2019-01-28T06:46:33.771Z,188
2019-01-28T06:47:51.390Z,220
2019-01-28T06:49:01.075Z,252
2019-01-28T06:50:10.782Z,280
2019-01-28T06:51:20.741Z,312
2019-01-28T06:52:30.453Z,348
2019-01-28T06:53:40.150Z,388
2019-01-28T06:54:50.085Z,424
2019-01-28T06:55:59.781Z,464
2019-01-28T06:57:09.725Z,508
2019-01-28T06:58:19.154Z,556
2019-01-28T06:59:28.850Z,608
2019-01-28T07:00:38.543Z,664
2019-01-28T07:01:50.186Z,716
2019-01-28T07:03:00.252Z,780
2019-01-28T07:04:09.972Z,844
2019-01-28T07:05:19.393Z,912
2019-01-28T07:06:29.345Z,980
2019-01-28T07:07:39.289Z,1060
2019-01-28T07:08:49.031Z,1132
2019-01-28T07:09:58.741Z,1208
2019-01-28T07:11:08.742Z,1292
2019-01-28T07:12:18.691Z,1376
2019-01-28T07:13:28.639Z,1468
2019-01-28T07:14:38.581Z,1556
2019-01-28T07:15:48.555Z,1640
2019-01-28T07:16:58.523Z,1696
2019-01-28T07:18:07.979Z,1748
2019-01-28T07:19:17.925Z,1816
2019-01-28T07:20:27.880Z,1904
2019-01-28T07:21:37.899Z,2008
2019-01-28T07:22:47.849Z,2124
2019-01-28T07:23:57.825Z,2220
2019-01-28T07:25:07.823Z,2324
2019-01-28T07:26:17.765Z,2432
2019-01-28T07:27:27.475Z,2508
2019-01-28T07:28:37.423Z,2560
2019-01-28T07:29:47.361Z,2616
2019-01-28T07:30:57.312Z,2704
2019-01-28T07:32:07.360Z,2740
2019-01-28T07:33:17.042Z,2792
2019-01-28T07:34:26.981Z,2896
2019-01-28T07:35:36.933Z,2960
2019-01-28T07:36:46.621Z,3084
2019-01-28T07:37:56.556Z,3220
2019-01-28T07:39:07.788Z,3316
2019-01-28T07:40:17.499Z,3460
2019-01-28T07:41:27.455Z,3612
2019-01-28T07:42:37.415Z,3684
2019-01-28T07:43:47.113Z,3732
2019-01-28T07:44:57.095Z,3768
2019-01-28T07:46:07.041Z,3792
2019-01-28T07:47:16.747Z,3784
2019-01-28T07:48:26.427Z,3788
2019-01-28T07:49:36.113Z,3816
2019-01-28T07:50:45.824Z,3856
2019-01-28T07:51:55.828Z,3856
2019-01-28T07:53:05.789Z,3844
2019-01-28T07:54:15.733Z,3824
2019-01-28T07:55:25.191Z,3816
2019-01-28T07:56:35.197Z,3868
2019-01-28T07:57:45.153Z,3944
2019-01-28T07:58:54.833Z,4048
2019-01-28T08:00:04.786Z,4116
2019-01-28T08:01:14.725Z,4208
2019-01-28T08:02:24.443Z,4372
2019-01-28T08:03:34.393Z,4572
2019-01-28T08:04:44.093Z,4904
2019-01-28T08:05:53.793Z,5264
2019-01-28T08:07:06.481Z,5464
2019-01-28T08:08:16.183Z,5712
2019-01-28T08:09:26.123Z,5852
2019-01-28T08:10:36.364Z,5988
2019-01-28T08:11:46.329Z,6228
2019-01-28T08:12:55.758Z,6612
2019-01-28T08:14:05.509Z,6840
2019-01-28T08:15:15.221Z,6960
2019-01-28T08:16:25.199Z,7340
2019-01-28T08:17:34.898Z,7476
2019-01-28T08:18:44.843Z,7824
2019-01-28T08:19:54.864Z,8320
2019-01-28T08:21:04.817Z,8564
2019-01-28T08:22:14.995Z,8680
2019-01-28T08:23:24.451Z,8836
2019-01-28T08:24:34.267Z,9128
2019-01-28T08:25:44.286Z,9272
2019-01-28T08:26:54.253Z,9524
2019-01-28T08:28:04.213Z,9992
2019-01-28T08:29:14.166Z,10016
2019-01-28T08:30:24.189Z,10276
2019-01-28T08:31:33.903Z,10236
2019-01-28T08:32:43.607Z,10188
2019-01-28T08:33:53.565Z,10608
2019-01-28T08:35:03.269Z,11008
2019-01-28T08:36:13.206Z,11340
2019-01-28T08:37:22.905Z,11808
2019-01-28T08:38:32.855Z,12768
2019-01-28T08:39:43.021Z,13884
2019-01-28T08:40:53.018Z,14340
2019-01-28T08:42:03.070Z,14780
2019-01-28T08:43:14.605Z,14640
2019-01-28T08:44:24.431Z,11252
2019-01-28T08:45:34.380Z,12424
2019-01-28T08:46:44.082Z,11816
2019-01-28T08:47:54.045Z,13348
2019-01-28T08:49:04.255Z,13768
2019-01-28T08:50:14.225Z,17600
2019-01-28T08:51:24.252Z,17440
2019-01-28T08:52:34.010Z,17344
2019-01-28T08:53:43.989Z,19072
2019-01-28T08:54:53.977Z,19136
2019-01-28T08:56:03.426Z,19712
2019-01-28T08:57:13.355Z,20448
2019-01-28T08:58:23.311Z,20480
2019-01-28T08:59:33.253Z,21376
2019-01-28T09:00:43.191Z,21984
2019-01-28T09:01:53.132Z,22656
2019-01-28T09:03:03.078Z,22560
2019-01-28T09:04:13.059Z,22944
2019-01-28T09:05:24.838Z,23648
2019-01-28T09:06:34.295Z,23680
2019-01-28T09:07:44.316Z,24000
2019-01-28T09:08:54.307Z,24384
2019-01-28T09:10:03.788Z,24864
2019-01-28T09:11:13.750Z,26272
2019-01-28T09:12:23.720Z,27552
2019-01-28T09:13:33.672Z,28544
2019-01-28T09:14:43.387Z,28992
2019-01-28T09:15:53.112Z,28992
2019-01-28T09:17:03.067Z,26464
2019-01-28T09:18:13.263Z,28064
2019-01-28T09:19:22.997Z,29536
2019-01-28T09:20:32.944Z,30624
2019-01-28T09:21:42.646Z,31776
2019-01-28T09:22:52.630Z,32224
2019-01-28T09:24:02.095Z,33056
2019-01-28T09:25:12.297Z,34624
2019-01-28T09:26:22.245Z,35968
2019-01-28T09:27:32.204Z,36128
2019-01-28T09:28:42.139Z,36224
2019-01-28T09:29:52.073Z,36064
2019-01-28T09:31:02.015Z,37440
2019-01-28T09:32:11.964Z,38464
2019-01-28T09:33:21.714Z,36576
2019-01-28T09:34:31.390Z,36576
2019-01-28T09:35:41.341Z,36160
2019-01-28T09:36:51.291Z,37952
2019-01-28T09:38:01.000Z,37600
2019-01-28T09:39:10.946Z,37952
2019-01-28T09:40:20.639Z,39168
2019-01-28T09:41:35.492Z,36032
2019-01-28T09:42:45.519Z,35680
2019-01-28T09:43:55.214Z,39168
2019-01-28T09:45:05.172Z,41984
2019-01-28T09:46:15.118Z,43040
2019-01-28T09:47:24.821Z,41856
2019-01-28T09:48:41.482Z,42816
2019-01-28T09:49:51.434Z,42848
2019-01-28T09:51:01.390Z,43456
2019-01-28T09:52:11.374Z,45248
2019-01-28T09:53:21.061Z,46464
2019-01-28T09:54:31.038Z,46016
2019-01-28T09:55:40.977Z,45472
2019-01-28T09:56:50.964Z,41504
2019-01-28T09:58:00.917Z,32608
2019-01-28T09:59:10.614Z,38656
2019-01-28T10:00:20.596Z,50400
2019-01-28T10:01:30.539Z,52032
2019-01-28T10:02:40.284Z,52960
2019-01-28T10:03:50.260Z,52768
2019-01-28T10:05:00.262Z,53344
2019-01-28T10:06:09.784Z,53824
2019-01-28T10:07:19.489Z,55712
2019-01-28T10:08:29.485Z,54624
2019-01-28T10:09:39.188Z,51488
2019-01-28T10:10:49.129Z,56160
2019-01-28T10:11:59.111Z,57440
2019-01-28T10:13:09.108Z,49920
2019-01-28T10:14:19.052Z,49056
2019-01-28T10:15:33.668Z,47616
2019-01-28T10:16:43.104Z,50912
2019-01-28T10:17:52.547Z,56512
2019-01-28T10:19:03.262Z,60512
2019-01-28T10:20:12.946Z,60256
2019-01-28T10:21:22.910Z,62848
2019-01-28T10:22:32.356Z,62208
2019-01-28T10:23:42.057Z,63744
2019-01-28T10:24:51.270Z,62080
2019-01-28T10:26:04.986Z,64768
2019-01-28T10:27:14.933Z,63840
2019-01-28T10:28:24.930Z,63904
2019-01-28T10:29:34.636Z,62912
2019-01-28T10:30:44.392Z,67264
2019-01-28T10:31:54.362Z,69600
2019-01-28T10:33:04.068Z,68576
2019-01-28T10:34:20.919Z,67808
2019-01-28T10:35:30.879Z,69504
2019-01-28T10:36:41.488Z,39104
2019-01-28T10:37:51.450Z,61216
2019-01-28T10:39:00.910Z,68000
2019-01-28T10:40:11.938Z,24640
2019-01-28T10:41:21.674Z,69376
2019-01-28T10:42:31.642Z,69312
2019-01-28T10:43:41.356Z,69952
2019-01-28T10:44:51.356Z,62592
2019-01-28T10:46:01.095Z,61056
2019-01-28T10:47:11.061Z,32320
2019-01-28T10:48:20.516Z,64640
2019-01-28T10:49:30.481Z,69024
2019-01-28T10:50:40.460Z,73312
2019-01-28T10:51:50.507Z,71776
2019-01-28T10:53:00.255Z,74496
2019-01-28T10:54:10.213Z,73440
2019-01-28T10:55:19.932Z,72032
2019-01-28T10:56:29.919Z,72512
2019-01-28T10:57:39.881Z,75552
2019-01-28T10:58:49.606Z,76288
2019-01-28T10:59:59.565Z,79104
2019-01-28T11:01:09.534Z,77536
2019-01-28T11:02:19.237Z,80320
2019-01-28T11:03:29.177Z,76480
2019-01-28T11:04:39.135Z,78080
2019-01-28T11:05:48.839Z,78784
2019-01-28T11:06:58.788Z,78048
2019-01-28T11:08:08.519Z,80192
2019-01-28T11:09:18.672Z,80832
2019-01-28T11:10:28.529Z,18324
2019-01-28T11:11:38.451Z,80000
2019-01-28T11:12:50.393Z,55360
2019-01-28T11:14:00.515Z,74688
2019-01-28T11:15:10.639Z,72384
2019-01-28T11:16:20.739Z,31808
2019-01-28T11:17:31.011Z,31232
2019-01-28T11:18:41.202Z,42912
2019-01-28T11:19:51.190Z,26112
2019-01-28T11:21:01.457Z,22432
2019-01-28T11:22:11.886Z,40768
2019-01-28T11:23:21.978Z,39456
2019-01-28T11:24:32.383Z,40832
2019-01-28T11:25:42.164Z,23424
2019-01-28T11:26:52.582Z,71232
2019-01-28T11:28:02.491Z,70752
2019-01-28T11:29:12.556Z,61696
2019-01-28T11:30:22.752Z,58176
2019-01-28T11:31:32.875Z,72224
2019-01-28T11:32:43.141Z,77792
2019-01-28T11:33:53.197Z,69760
2019-01-28T11:35:03.563Z,69728
2019-01-28T11:36:13.820Z,32672
2019-01-28T11:37:24.166Z,38528
2019-01-28T11:38:34.311Z,25344
2019-01-28T11:39:44.648Z,22240
2019-01-28T11:40:54.638Z,15988
2019-01-28T11:42:05.028Z,14816
2019-01-28T11:43:15.263Z,16220
2019-01-28T11:44:25.116Z,21184
2019-01-28T11:45:35.511Z,24928
2019-01-28T11:46:45.898Z,25664
2019-01-28T11:47:56.458Z,27296
2019-01-28T11:49:13.441Z,41024
2019-01-28T11:50:23.531Z,34912
2019-01-28T11:51:33.486Z,70400
2019-01-28T11:52:43.166Z,35776
2019-01-28T11:53:52.858Z,36512
2019-01-28T11:55:02.799Z,24160
2019-01-28T11:56:12.264Z,16216
2019-01-28T11:57:22.222Z,13384
2019-01-28T11:58:32.178Z,12352
2019-01-28T11:59:42.136Z,11576
2019-01-28T12:00:52.082Z,11056
2019-01-28T12:02:02.053Z,8968
2019-01-28T12:03:12.010Z,6808
2019-01-28T12:04:23.898Z,6488
2019-01-28T12:05:33.364Z,7040
2019-01-28T12:06:42.840Z,7604
2019-01-28T12:07:52.529Z,7700
2019-01-28T12:09:01.973Z,7100
2019-01-28T12:10:11.930Z,6228
2019-01-28T12:11:21.607Z,5968
2019-01-28T12:12:31.045Z,5484
2019-01-28T12:13:41.009Z,5616
2019-01-28T12:14:50.709Z,6380
2019-01-28T12:16:00.411Z,7100
2019-01-28T12:17:10.109Z,8860
2019-01-28T12:18:19.567Z,10592
2019-01-28T12:19:29.025Z,12072
2019-01-28T12:20:38.972Z,13880
2019-01-28T12:21:48.673Z,15264
2019-01-28T12:22:58.626Z,16036
2019-01-28T12:24:08.323Z,15876
2019-01-28T12:25:18.086Z,15788
2019-01-28T12:26:28.035Z,16404
2019-01-28T12:27:38.209Z,16928
2019-01-28T12:28:48.173Z,17024
2019-01-28T12:29:57.881Z,17888
2019-01-28T12:31:07.863Z,19200
2019-01-28T12:32:17.563Z,19648
2019-01-28T12:33:27.517Z,22208
2019-01-28T12:34:41.885Z,20896
2019-01-28T12:35:51.587Z,21856
2019-01-28T12:37:01.344Z,24960
2019-01-28T12:38:11.304Z,27968
2019-01-28T12:39:21.307Z,53280
2019-01-28T12:40:31.279Z,30144
2019-01-28T12:41:41.232Z,31136
2019-01-28T12:42:52.445Z,29888
2019-01-28T12:44:02.590Z,27072
2019-01-28T12:45:12.520Z,24384
2019-01-28T12:46:22.470Z,21440
2019-01-28T12:47:31.929Z,19776
2019-01-28T12:48:41.372Z,19424
2019-01-28T12:49:51.088Z,19008
2019-01-28T12:51:00.810Z,17824
2019-01-28T12:52:10.829Z,17344
2019-01-28T12:53:20.868Z,17920
2019-01-28T12:54:30.618Z,17472
2019-01-28T12:55:41.231Z,15760
2019-01-28T12:56:50.940Z,14968
2019-01-28T12:58:00.642Z,14316
2019-01-28T12:59:16.256Z,12820
2019-01-28T13:00:26.218Z,11144
2019-01-28T13:01:35.928Z,9924
2019-01-28T13:02:45.879Z,8672
2019-01-28T13:03:55.565Z,7668
2019-01-28T13:05:05.517Z,7180
2019-01-28T13:06:15.463Z,7572
2019-01-28T13:07:25.422Z,8352
2019-01-28T13:08:35.153Z,9296
2019-01-28T13:09:44.838Z,10352
2019-01-28T13:10:54.043Z,11892
2019-01-28T13:12:04.030Z,14516
2019-01-28T13:13:13.795Z,16192
2019-01-28T13:14:23.487Z,14024
2019-01-28T13:15:33.229Z,12288
2019-01-28T13:16:42.929Z,11192
2019-01-28T13:17:52.622Z,9800
2019-01-28T13:19:02.331Z,7932
2019-01-28T13:20:12.272Z,6896
2019-01-28T13:21:21.987Z,6620
2019-01-28T13:22:31.953Z,7676
2019-01-28T13:23:42.964Z,10084
2019-01-28T13:24:52.741Z,11444
2019-01-28T13:26:02.691Z,11264
2019-01-28T13:27:12.397Z,10556
2019-01-28T13:28:22.355Z,10316
2019-01-28T13:29:32.160Z,10104
2019-01-28T13:30:42.128Z,9200
2019-01-28T13:31:52.097Z,8092
2019-01-28T13:33:01.811Z,7320
2019-01-28T13:34:11.781Z,7144
2019-01-28T13:35:21.729Z,6888
2019-01-28T13:36:31.187Z,6904
2019-01-28T13:37:41.149Z,7020
2019-01-28T13:38:51.128Z,6868
2019-01-28T13:40:01.107Z,7080
2019-01-28T13:41:10.821Z,7000
2019-01-28T13:42:20.804Z,6780
2019-01-28T13:43:30.512Z,6460
2019-01-28T13:44:40.447Z,6084
2019-01-28T13:45:50.407Z,5836
2019-01-28T13:47:00.358Z,5708
2019-01-28T13:48:10.330Z,5704
2019-01-28T13:49:19.518Z,5556
2019-01-28T13:50:29.713Z,5472
2019-01-28T13:51:39.445Z,5300
2019-01-28T13:52:49.152Z,5000
2019-01-28T13:53:59.122Z,4784
2019-01-28T13:55:09.059Z,4680
2019-01-28T13:56:19.021Z,4448
2019-01-28T13:57:28.726Z,4248
2019-01-28T13:58:38.677Z,4068
2019-01-28T13:59:48.633Z,3724
2019-01-28T14:00:58.581Z,3444
2019-01-28T14:02:08.291Z,3116
2019-01-28T14:03:18.243Z,3004
2019-01-28T14:04:28.181Z,3040
2019-01-28T14:05:37.907Z,3228
2019-01-28T14:06:47.691Z,3564
2019-01-28T14:07:57.644Z,3756
2019-01-28T14:09:07.093Z,3588
2019-01-28T14:10:17.045Z,3200
2019-01-28T14:11:26.991Z,2852
2019-01-28T14:12:36.947Z,2656
2019-01-28T14:13:46.899Z,2628
2019-01-28T14:14:56.867Z,2824
2019-01-28T14:16:06.561Z,2980
2019-01-28T14:17:16.259Z,3072
2019-01-28T14:18:26.442Z,3224
2019-01-28T14:19:36.379Z,3540
2019-01-28T14:20:58.243Z,3948
2019-01-28T14:22:08.183Z,3848
2019-01-28T14:23:17.889Z,3548
2019-01-28T14:24:27.851Z,3284
2019-01-28T14:25:37.830Z,3120
2019-01-28T14:26:47.785Z,3028
2019-01-28T14:27:57.500Z,2864
2019-01-28T14:29:07.442Z,2628
2019-01-28T14:30:17.431Z,2444
2019-01-28T14:31:27.370Z,2300
2019-01-28T14:32:37.059Z,2144
2019-01-28T14:33:46.762Z,2168
2019-01-28T14:34:56.138Z,2336
2019-01-28T14:36:06.145Z,2484
2019-01-28T14:37:16.081Z,2544
2019-01-28T14:38:25.552Z,2624
2019-01-28T14:39:35.509Z,2744
2019-01-28T14:40:45.221Z,2928
2019-01-28T14:41:55.171Z,3192
2019-01-28T14:43:04.861Z,3420
2019-01-28T14:44:15.987Z,3632
2019-01-28T14:45:25.930Z,3828
2019-01-28T14:46:35.390Z,3900
2019-01-28T14:47:45.033Z,3836
2019-01-28T14:48:56.087Z,3608
2019-01-28T14:50:06.061Z,3280
2019-01-28T14:51:16.039Z,2908
2019-01-28T14:52:25.995Z,2632
2019-01-28T14:53:36.259Z,2568
2019-01-28T14:54:46.207Z,2488
2019-01-28T14:55:56.177Z,2268
2019-01-28T14:57:05.908Z,2080
2019-01-28T14:58:21.323Z,1896
2019-01-28T14:59:31.001Z,1740
2019-01-28T15:00:40.952Z,1688
2019-01-28T15:01:50.895Z,1712
2019-01-28T15:03:00.359Z,1800
2019-01-28T15:04:14.609Z,1860
2019-01-28T15:05:24.309Z,1816
2019-01-28T15:06:34.252Z,1696
2019-01-28T15:07:44.966Z,1516
2019-01-28T15:08:54.750Z,1356
2019-01-28T15:10:04.486Z,1248
2019-01-28T15:11:14.436Z,1164
2019-01-28T15:12:24.379Z,1076
2019-01-28T15:13:34.347Z,984
2019-01-28T15:14:44.295Z,908
2019-01-28T15:15:53.719Z,812
2019-01-28T15:17:03.470Z,692
2019-01-28T15:18:13.414Z,628
2019-01-28T15:19:23.363Z,612
2019-01-28T15:20:33.061Z,616
2019-01-28T15:21:42.987Z,616
2019-01-28T15:22:52.927Z,564
2019-01-28T15:24:02.885Z,476
2019-01-28T15:25:12.573Z,380
2019-01-28T15:26:22.556Z,300
2019-01-28T15:27:32.568Z,252
2019-01-28T15:28:42.512Z,216
2019-01-28T15:29:52.455Z,192
2019-01-28T15:31:02.496Z,192
2019-01-28T15:32:12.527Z,196
2019-01-28T15:33:22.645Z,192
2019-01-28T15:34:32.928Z,196
2019-01-28T15:35:42.936Z,196
2019-01-28T15:36:52.622Z,200
2019-01-28T15:38:02.589Z,204
2019-01-28T15:39:12.598Z,208
2019-01-28T15:40:22.544Z,228
2019-01-28T15:41:32.237Z,264
2019-01-28T15:42:42.167Z,292
2019-01-28T15:43:51.855Z,284
2019-01-28T15:45:01.552Z,260
2019-01-28T15:46:18.971Z,228
2019-01-28T15:47:28.961Z,200
2019-01-28T15:48:38.936Z,176
2019-01-28T15:49:48.895Z,156
2019-01-28T15:50:58.846Z,132
2019-01-28T15:52:08.777Z,116
2019-01-28T15:53:18.459Z,96
2019-01-28T15:54:28.394Z,80
2019-01-28T15:55:38.342Z,64
2019-01-28T15:56:48.287Z,56
2019-01-28T15:57:58.242Z,48
2019-01-28T15:59:08.197Z,44
2019-01-28T16:00:18.141Z,36
2019-01-28T16:01:27.825Z,32
2019-01-28T16:02:37.514Z,24
2019-01-28T16:03:47.468Z,20
2019-01-28T16:04:57.405Z,16